Data for 09/28/2006

Time Sea-Level Adjusted Pressure Absolute Pressure Temperature Relative Humidity Dew Point   
(mb) (inHg) (mb) (inHg) (C) (F) (%) (C) (F)
00:05 1024 30.24 853 25.19 8.3 47 71 3.3 38
00:10 1024 30.24 853 25.19 8.3 46.9 70 3.2 37.7
00:15 1024 30.24 853 25.19 8.3 46.9 72 3.4 38.2
00:20 1024 30.24 853 25.19 8.2 46.8 70 3.2 37.7
00:25 1024 30.24 853 25.19 8.8 47.8 68 3.3 37.9
00:30 1024 30.24 853 25.19 8.8 47.8 69 3.5 38.3
00:35 1024 30.24 853 25.19 8.3 47 71 3.5 38.3
00:40 1024 30.24 853 25.19 8.1 46.6 72 3.4 38.2
00:45 1024 30.24 853 25.19 8 46.4 73 3.5 38.2
00:50 1024 30.24 853 25.19 7.8 46 73 3.3 37.9
00:55 1024 30.24 853 25.19 7.7 45.9 73 3.3 37.9
01:00 1024 30.24 853 25.19 7.7 45.8 74 3.3 38
01:05 1024 30.24 853 25.19 7.5 45.6 74 3.3 37.9
01:10 1024 30.24 853 25.19 7.4 45.2 75 3.3 37.9
01:15 1024 30.24 853 25.19 7.3 45.2 75 3.2 37.8
01:20 1024 30.24 853 25.19 7.6 45.7 73 3.2 37.7
01:25 1024 30.24 853 25.19 8.1 46.5 71 3.1 37.6
01:30 1024 30.24 853 25.19 8 46.4 73 3.5 38.2
01:35 1024 30.24 853 25.19 7.6 45.6 74 3.2 37.8
01:40 1024 30.24 853 25.19 7.5 45.5 74 3.2 37.8
01:45 1024 30.24 853 25.19 7.5 45.5 74 3.2 37.7
01:50 1024 30.24 853 25.19 7.6 45.6 74 3.2 37.8
01:55 1024 30.24 853 25.19 7.7 45.9 73 3.2 37.7
02:00 1024 30.24 853 25.19 7.9 46.3 72 3.2 37.7
02:05 1024 30.24 853 25.19 8.1 46.5 71 3.1 37.6
02:10 1024 30.24 853 25.19 8.3 47 69 3.1 37.5
02:15 1024 30.24 853 25.19 8.5 47.2 70 3.3 37.9
02:20 1024 30.24 853 25.19 8.6 47.6 69 3.3 37.9
02:25 1024 30.24 853 25.19 8.5 47.2 70 3.3 38
02:30 1024 30.24 853 25.19 8.1 46.6 72 3.4 38.1
02:35 1024 30.24 853 25.19 7.9 46.2 72 3.3 37.9
02:40 1024 30.24 853 25.19 8 46.5 72 3.4 38
02:45 1024 30.24 853 25.19 8.3 46.9 71 3.4 38
02:50 1024 30.24 853 25.19 8.6 47.4 70 3.5 38.2
02:55 1024 30.24 853 25.19 8.7 47.6 70 3.5 38.4
03:00 1024 30.24 853 25.19 9 48.1 69 3.6 38.4
03:05 1024 30.24 853 25.19 8.7 47.7 70 3.6 38.5
03:10 1024 30.24 853 25.19 8.3 46.9 72 3.6 38.4
03:15 1024 30.24 853 25.19 7.7 45.8 75 3.5 38.4
03:20 1024 30.24 853 25.19 6.9 44.5 78 3.4 38.1
03:25 1024 30.24 853 25.19 6.6 44 78 3.1 37.6
03:30 1023 30.21 853 25.19 7.2 44.9 76 3.3 37.9
03:35 1023 30.21 853 25.19 7.3 45.2 76 3.4 38.2
03:40 1024 30.24 853 25.19 7.7 45.8 74 3.3 37.9
03:45 1024 30.24 853 25.19 7.8 46.1 75 3.6 38.5
03:50 1023 30.21 853 25.19 7.8 46 74 3.5 38.3
03:55 1023 30.21 853 25.19 7.7 45.9 74 3.4 38.2
04:00 1023 30.21 853 25.19 7.4 45.3 77 3.6 38.4
04:05 1023 30.21 853 25.19 7.5 45.4 74 3.2 37.8
04:10 1023 30.21 853 25.19 7.6 45.7 75 3.4 38.1
04:15 1023 30.21 852 25.16 8.1 46.6 71 3.3 37.9
04:20 1023 30.21 852 25.16 8.2 46.8 73 3.6 38.5
04:25 1023 30.21 852 25.16 7.7 45.8 75 3.5 38.3
04:30 1023 30.21 852 25.16 7.3 45.2 76 3.3 38
04:35 1023 30.21 852 25.16 7.4 45.4 76 3.5 38.3
04:40 1023 30.21 852 25.16 7.4 45.4 76 3.6 38.4
04:45 1023 30.21 852 25.16 7.2 45 77 3.4 38.1
04:50 1023 30.21 852 25.16 7 44.6 78 3.4 38.2
04:55 1023 30.21 852 25.16 6.9 44.4 78 3.4 38
05:00 1023 30.21 852 25.16 6.6 43.8 80 3.3 38
05:05 1023 30.21 852 25.16 6.6 43.9 80 3.3 38
05:10 1023 30.21 852 25.16 6.6 44 79 3.3 37.9
05:15 1023 30.21 852 25.16 6.7 44.1 78 3.2 37.7
05:20 1023 30.21 852 25.16 7 44.5 78 3.3 38
05:25 1023 30.21 852 25.16 6.8 44.3 78 3.3 37.9
05:30 1023 30.21 852 25.16 6.9 44.5 77 3.2 37.7
05:35 1023 30.21 852 25.16 6.9 44.4 77 3.1 37.7
05:40 1023 30.21 852 25.16 7.2 45 75 3 37.4
05:45 1023 30.21 852 25.16 7.8 46.1 72 3.2 37.7
05:50 1023 30.21 852 25.16 7.8 46 73 3.3 37.9
05:55 1023 30.21 852 25.16 7.6 45.8 74 3.3 37.9
06:00 1023 30.21 852 25.16 7.5 45.4 75 3.3 37.9
06:05 1023 30.21 852 25.16 7.3 45.1 75 3.3 37.9
06:10 1023 30.21 852 25.16 7.1 44.8 76 3.1 37.5
06:15 1023 30.21 852 25.16 6.9 44.4 76 3 37.4
06:20 1023 30.21 852 25.16 6.8 44.3 77 3.1 37.6
06:25 1023 30.21 852 25.16 6.1 43 80 2.9 37.2
06:30 1023 30.21 852 25.16 5.9 42.6 79 2.4 36.4
06:35 1023 30.21 852 25.16 5.5 42 80 2.3 36.2
06:40 1023 30.21 852 25.16 5.4 41.7 81 2.4 36.4
06:45 1023 30.21 852 25.16 5.5 41.9 81 2.4 36.4
06:50 1023 30.21 852 25.16 5.5 41.9 81 2.4 36.3
06:55 1023 30.21 852 25.16 5.2 41.3 83 2.4 36.4
07:00 1023 30.21 852 25.16 5.1 41.2 81 2.2 35.9
07:05 1023 30.21 852 25.16 5.4 41.6 80 2.2 35.9
07:10 1023 30.21 852 25.16 5.5 41.9 79 2.2 36
07:15 1023 30.21 852 25.16 5.6 42.1 79 2.2 36
07:20 1023 30.21 852 25.16 5.8 42.5 78 2.2 36
07:25 1023 30.21 852 25.16 6 42.9 77 2.3 36.2
07:30 1023 30.21 853 25.19 6.1 43 77 2.3 36.2
07:35 1023 30.21 853 25.19 6.2 43.2 76 2.3 36.1
07:40 1024 30.24 853 25.19 6.6 43.9 75 2.5 36.4
07:45 1023 30.21 853 25.19 6.8 44.2 74 2.5 36.6
07:50 1023 30.21 852 25.16 6.4 43.6 77 2.7 36.9
07:55 1023 30.21 852 25.16 6.5 43.8 75 2.5 36.5
08:00 1023 30.21 852 25.16 6.9 44.4 74 2.6 36.7
08:05 1023 30.21 852 25.16 7.2 45 73 2.8 37.1
08:10 1023 30.21 852 25.16 7.6 45.6 71 2.7 36.8
08:15 1023 30.21 852 25.16 7.9 46.2 70 2.8 37
08:20 1023 30.21 852 25.16 8.2 46.8 68 2.8 37
08:25 1023 30.21 852 25.16 8.6 47.4 67 2.9 37.1
08:30 1023 30.21 852 25.16 8.9 47.9 68 3.2 37.8
08:35 1023 30.21 852 25.16 9.1 48.5 67 3.3 37.9
08:40 1023 30.21 852 25.16 9.4 48.9 66 3.4 38.2
08:45 1023 30.21 852 25.16 9.4 48.9 66 3.4 38
08:50 1023 30.21 852 25.16 9.4 49 66 3.4 38.1
08:55 1023 30.21 852 25.16 10 50.1 64 3.5 38.4
09:00 1023 30.21 852 25.16 10.8 51.4 62 3.8 38.8
09:05 1023 30.21 852 25.16 11.1 51.9 62 4.2 39.6
09:10 1023 30.21 852 25.16 11 51.8 63 4.3 39.8
09:15 1023 30.21 852 25.16 11.2 52.2 62 4.2 39.5
09:20 1023 30.21 852 25.16 11.8 53.2 60 4.2 39.6
09:25 1023 30.21 852 25.16 12 53.5 59 4.3 39.7
09:30 1023 30.21 852 25.16 12.2 53.9 58 4.3 39.7
09:35 1023 30.21 852 25.16 12.7 54.9 55 4 39.2
09:40 1023 30.21 852 25.16 12.9 55.3 53 3.7 38.7
09:45 1023 30.21 852 25.16 13.4 56 52 3.7 38.6
09:50 1022 30.18 852 25.16 13.6 56.4 51 3.7 38.6
09:55 1022 30.18 852 25.16 14 57.2 49 3.5 38.4
10:00 1022 30.18 852 25.16 15 59 46 3.6 38.5
10:05 1022 30.18 851 25.13 14.4 58 47 3.5 38.3
10:10 1022 30.18 852 25.16 14.7 58.4 46 3.3 37.9
10:15 1023 30.21 852 25.16 15 59 48 4.1 39.3
10:20 1022 30.18 852 25.16 14.5 58.1 50 4.3 39.7
10:25 1022 30.18 852 25.16 15.4 59.8 46 3.9 39
10:30 1022 30.18 852 25.16 15.9 60.7 45 4.2 39.6
10:35 1022 30.18 851 25.13 16.1 61 45 4.4 39.9
10:40 1022 30.18 851 25.13 16.5 61.6 46 4.8 40.6
10:45 1022 30.18 851 25.13 16.6 61.9 46 5 40.9
10:50 1022 30.18 852 25.16 15.9 60.7 52 6.1 43
10:55 1022 30.18 851 25.13 14.7 58.5 54 5.7 42.2
11:00 1022 30.18 851 25.13 14.8 58.6 52 5.2 41.4
11:05 1022 30.18 851 25.13 15.3 59.5 50 4.9 40.8
11:10 1022 30.18 852 25.16 15.1 59.2 51 5.1 41.1
11:15 1022 30.18 851 25.13 16.1 61.1 48 5.2 41.3
11:20 1022 30.18 851 25.13 16 60.7 46 4.5 40.1
11:25 1022 30.18 851 25.13 17.3 63.1 42 4.4 39.9
11:30 1022 30.18 851 25.13 17.9 64.2 40 4.4 39.9
11:35 1022 30.18 852 25.16 18 64.4 40 4.3 39.7
11:40 1022 30.18 852 25.16 18.3 65 40 4.6 40.3
11:45 1022 30.18 852 25.16 19 66.1 37 4.2 39.6
11:50 1022 30.18 851 25.13 18.9 66 38 4.3 39.8
11:55 1022 30.18 851 25.13 19.1 66.3 36 3.8 38.9
12:00 1022 30.18 851 25.13 18.9 66 35 3.1 37.6
12:05 1022 30.18 851 25.13 18.9 66 35 3.4 38.2
12:10 1022 30.18 851 25.13 19.9 67.7 33 3.4 38.2
12:15 1022 30.18 851 25.13 20 68 32 3.1 37.6
12:20 1022 30.18 851 25.13 19.2 66.6 34 3.1 37.7
12:25 1022 30.18 851 25.13 19.6 67.2 33 2.9 37.2
12:30 1022 30.18 851 25.13 19.8 67.6 32 2.7 36.9
12:35 1022 30.18 851 25.13 20.2 68.3 31 2.8 37
12:40 1022 30.18 851 25.13 20.6 69.1 31 3 37.4
12:45 1022 30.18 851 25.13 21 69.8 30 2.8 37.1
12:50 1022 30.18 851 25.13 21.2 70.2 30 3.3 38
12:55 1022 30.18 851 25.13 20.9 69.5 32 3.5 38.3
13:00 1022 30.18 851 25.13 21 69.7 30 2.9 37.1
13:05 1022 30.18 851 25.13 21.1 69.9 30 3 37.4
13:10 1022 30.18 851 25.13 21.3 70.3 30 3.4 38.1
13:15 1022 30.18 851 25.13 21.5 70.7 30 3.5 38.4
13:20 1021 30.15 851 25.13 21.7 71 30 3.8 38.8
13:25 1021 30.15 851 25.13 21.7 71.1 30 3.5 38.4
13:30 1021 30.15 851 25.13 22.1 71.7 30 3.8 38.9
13:35 1021 30.15 851 25.13 22.7 72.8 29 3.7 38.7
13:40 1021 30.15 851 25.13 22.3 72.1 29 3.8 38.8
13:45 1021 30.15 851 25.13 22.4 72.4 29 3.6 38.5
13:50 1021 30.15 850 25.1 22.7 72.8 28 3.2 37.8
13:55 1021 30.15 850 25.1 22.6 72.7 28 3.5 38.2
14:00 1021 30.15 850 25.1 22.1 71.8 30 3.7 38.7
14:05 1021 30.15 850 25.1 21.4 70.5 30 3.2 37.7
14:10 1021 30.15 850 25.1 22.1 71.8 28 2.9 37.3
14:15 1021 30.15 850 25.1 22.8 73 26 2.7 36.8
14:20 1021 30.15 850 25.1 23.2 73.7 27 3.4 38.1
14:25 1021 30.15 850 25.1 23.3 73.9 26 2.9 37.2
14:30 1021 30.15 850 25.1 23.2 73.8 26 2.6 36.7
14:35 1021 30.15 850 25.1 23.6 74.5 26 3.1 37.5
14:40 1021 30.15 850 25.1 23.6 74.6 25 2.5 36.6
14:45 1021 30.15 850 25.1 23.7 74.6 25 2.6 36.6
14:50 1021 30.15 850 25.1 23.6 74.5 24 2.2 36
14:55 1021 30.15 850 25.1 23.6 74.5 23 1.6 34.9
15:00 1020 30.12 850 25.1 23.6 74.4 25 2.4 36.3
15:05 1020 30.12 850 25.1 23.2 73.8 25 2.1 35.8
15:10 1020 30.12 850 25.1 23.5 74.2 24 2.1 35.7
15:15 1020 30.12 849 25.07 23.6 74.4 24 2.1 35.8
15:20 1020 30.12 849 25.07 23.7 74.7 23 1.7 35.1
15:25 1020 30.12 849 25.07 24.1 75.3 24 2.2 36
15:30 1020 30.12 849 25.07 24.3 75.8 23 2 35.7
15:35 1020 30.12 849 25.07 24.1 75.3 23 1.8 35.2
15:40 1020 30.12 849 25.07 23.9 74.9 22 0.8 33.4
15:45 1020 30.12 849 25.07 24.2 75.5 22 1.4 34.5
15:50 1020 30.12 849 25.07 24.3 75.7 22 1.6 34.9
15:55 1020 30.12 849 25.07 24.4 75.9 21 1.1 34
16:00 1020 30.12 849 25.07 24.4 75.8 22 1.4 34.5
16:05 1020 30.12 849 25.07 24.7 76.4 22 1.8 35.3
16:10 1020 30.12 849 25.07 24.6 76.4 21 1.4 34.4
16:15 1020 30.12 849 25.07 24.1 75.4 23 1.7 35
16:20 1020 30.12 849 25.07 23.8 74.9 22 1.2 34.2
16:25 1019 30.09 849 25.07 23.9 75 22 1.4 34.4
16:30 1019 30.09 849 25.07 23.7 74.7 23 1.6 34.8
16:35 1019 30.09 849 25.07 23.5 74.4 24 1.9 35.5
16:40 1019 30.09 848 25.04 23.5 74.4 24 1.8 35.2
16:45 1019 30.09 848 25.04 23.4 74.1 23 1.5 34.7
16:50 1019 30.09 848 25.04 23.1 73.5 24 1.7 35
16:55 1019 30.09 848 25.04 23.3 74 24 1.6 34.8
17:00 1019 30.09 848 25.04 23.6 74.4 24 2 35.5
17:05 1019 30.09 848 25.04 23.3 74 23 1 33.9
17:10 1019 30.09 848 25.04 23.2 73.8 23 1.4 34.4
17:15 1019 30.09 848 25.04 23.3 74 23 1.5 34.6
17:20 1019 30.09 848 25.04 23.3 74 23 1.5 34.8
17:25 1019 30.09 848 25.04 23.1 73.7 24 1.6 35
17:30 1019 30.09 848 25.04 23 73.4 25 2.2 36
17:35 1019 30.09 848 25.04 22.9 73.2 26 2.8 37
17:40 1019 30.09 848 25.04 22.5 72.6 27 2.8 37.1
17:45 1019 30.09 848 25.04 22.1 71.8 29 3.2 37.8
17:50 1019 30.09 848 25.04 22.1 71.7 28 2.7 36.8
17:55 1019 30.09 848 25.04 22 71.5 28 3 37.4
18:00 1019 30.09 848 25.04 21.9 71.4 28 2.6 36.7
18:05 1019 30.09 848 25.04 21.9 71.4 27 2.5 36.5
18:10 1019 30.09 848 25.04 22 71.7 27 2.5 36.4
18:15 1019 30.09 848 25.04 22.3 72.2 28 3.2 37.8
18:20 1019 30.09 848 25.04 22.5 72.5 27 2.9 37.2
18:25 1019 30.09 848 25.04 22.9 73.1 29 4.3 39.7
18:30 1019 30.09 848 25.04 22.7 72.8 29 4 39.3
18:35 1019 30.09 848 25.04 22.1 71.9 28 3 37.4
18:40 1019 30.09 848 25.04 22 71.6 29 3.2 37.7
18:45 1019 30.09 848 25.04 21.1 70 31 3.5 38.3
18:50 1019 30.09 848 25.04 20.4 68.7 33 3.8 38.8
18:55 1019 30.09 848 25.04 20.2 68.4 34 4.1 39.4
19:00 1019 30.09 848 25.04 19.9 67.7 34 3.6 38.5
19:05 1018 30.06 848 25.04 19.7 67.5 34 3.5 38.4
19:10 1018 30.06 848 25.04 19.4 66.9 35 3.7 38.7
19:15 1018 30.06 848 25.04 19 66.1 35 3.1 37.7
19:20 1018 30.06 848 25.04 18.8 65.8 37 3.9 39
19:25 1019 30.09 848 25.04 18.3 65 39 4.2 39.5
19:30 1019 30.09 848 25.04 17.9 64.1 39 4 39.2
19:35 1019 30.09 848 25.04 17.6 63.7 39 3.6 38.5
19:40 1019 30.09 848 25.04 17.4 63.3 40 3.8 38.9
19:45 1019 30.09 848 25.04 17.1 62.8 39 3.3 37.9
19:50 1019 30.09 848 25.04 17.8 64 37 2.9 37.2
19:55 1019 30.09 848 25.04 18 64.4 37 3.2 37.8
20:00 1019 30.09 848 25.04 18.2 64.7 35 2.6 36.8
20:05 1019 30.09 848 25.04 18.2 64.8 35 2.8 37.1
20:10 1019 30.09 848 25.04 18.1 64.7 35 2.6 36.8
20:15 1019 30.09 848 25.04 18.2 64.8 35 2.7 36.9
20:20 1019 30.09 848 25.04 18.2 64.7 35 2.7 36.8
20:25 1019 30.09 848 25.04 18 64.4 35 2.6 36.7
20:30 1019 30.09 848 25.04 17.9 64.2 37 3 37.4
20:35 1019 30.09 848 25.04 17.4 63.3 39 3.4 38.2
20:40 1019 30.09 848 25.04 16.9 62.4 40 3.3 37.9
20:45 1019 30.09 849 25.07 16.9 62.3 39 3 37.3
20:50 1019 30.09 849 25.07 17.2 62.9 37 2.5 36.5
20:55 1019 30.09 849 25.07 17.1 62.8 40 3.6 38.5
21:00 1019 30.09 849 25.07 16.6 61.9 41 3.5 38.4
21:05 1019 30.09 849 25.07 16.2 61.2 42 3.5 38.3
21:10 1019 30.09 849 25.07 16.1 61 42 3.3 38
21:15 1019 30.09 849 25.07 16.6 61.9 38 2.2 35.9
21:20 1020 30.12 849 25.07 17.3 63.2 36 2.3 36.2
21:25 1020 30.12 849 25.07 17.7 63.9 35 2.4 36.2
21:30 1020 30.12 849 25.07 18 64.3 35 2.3 36.1
21:35 1020 30.12 849 25.07 18.2 64.8 35 2.6 36.7
21:40 1020 30.12 849 25.07 18.2 64.7 35 2.6 36.7
21:45 1020 30.12 849 25.07 18.1 64.5 35 2.5 36.6
21:50 1020 30.12 849 25.07 18.1 64.5 35 2.6 36.7
21:55 1020 30.12 849 25.07 18 64.4 36 2.7 36.9
22:00 1020 30.12 849 25.07 17.9 64.2 36 2.9 37.2
22:05 1020 30.12 849 25.07 17.8 64 41 4.4 40
22:10 1020 30.12 849 25.07 17.5 63.6 39 3.5 38.2
22:15 1020 30.12 849 25.07 15.7 60.2 46 4.1 39.4
22:20 1020 30.12 849 25.07 14.6 58.4 47 3.5 38.2
22:25 1020 30.12 849 25.07 14.8 58.6 46 3.2 37.8
22:30 1020 30.12 849 25.07 14.5 58.1 51 4.5 40.1
22:35 1020 30.12 849 25.07 14.1 57.3 49 3.7 38.7
22:40 1020 30.12 849 25.07 13.9 57 48 3.2 37.8
22:45 1020 30.12 849 25.07 14 57.3 47 3 37.3
22:50 1020 30.12 849 25.07 14.2 57.5 47 3 37.4
22:55 1020 30.12 849 25.07 14.4 57.9 48 3.6 38.4
23:00 1020 30.12 849 25.07 13.9 57.1 49 3.5 38.3
23:05 1020 30.12 849 25.07 13.8 56.9 48 3.2 37.7
23:10 1020 30.12 849 25.07 14.2 57.6 46 2.8 37.1
23:15 1020 30.12 849 25.07 14 57.1 49 3.4 38.1
23:20 1020 30.12 849 25.07 13.7 56.7 47 2.6 36.7
23:25 1020 30.12 849 25.07 13.8 56.8 48 3.1 37.6
23:30 1020 30.12 849 25.07 13.7 56.7 47 2.8 37.1
23:35 1020 30.12 849 25.07 13.8 56.8 48 3.1 37.6
23:40 1020 30.12 849 25.07 13.8 56.8 46 2.5 36.5
23:45 1020 30.12 849 25.07 14.4 57.9 45 2.7 36.8
23:50 1020 30.12 849 25.07 14.1 57.4 46 2.9 37.2
23:55 1020 30.12 849 25.07 14 57.3 45 2.4 36.4
24:00 1020 30.12 849 25.07 14.4 57.9 44 2.4 36.4